createdAt,value
2022-12-17T00:00:08.515Z,91.11
2022-12-17T00:01:08.444Z,91.00
2022-12-17T00:02:08.413Z,91.00
2022-12-17T00:03:08.527Z,91.00
2022-12-17T00:04:08.507Z,90.89
2022-12-17T00:05:08.385Z,90.79
2022-12-17T00:06:08.388Z,90.79
2022-12-17T00:07:08.352Z,90.79
2022-12-17T00:08:08.352Z,90.79
2022-12-17T00:09:08.322Z,90.83
2022-12-17T00:10:08.316Z,90.83
2022-12-17T00:11:08.321Z,90.94
2022-12-17T00:12:08.282Z,90.94
2022-12-17T00:13:08.271Z,90.62
2022-12-17T00:14:08.271Z,90.62
2022-12-17T00:15:08.251Z,90.72
2022-12-17T00:16:08.344Z,90.72
2022-12-17T00:17:08.228Z,90.72
2022-12-17T00:18:08.221Z,90.83
2022-12-17T00:19:08.200Z,90.72
2022-12-17T00:20:08.201Z,90.52
2022-12-17T00:21:08.194Z,90.62
2022-12-17T00:22:08.173Z,90.62
2022-12-17T00:23:08.153Z,90.72
2022-12-17T00:24:08.143Z,90.72
2022-12-17T00:25:08.132Z,90.72
2022-12-17T00:26:08.131Z,90.72
2022-12-17T00:27:08.102Z,90.79
2022-12-17T00:28:08.097Z,90.89
2022-12-17T00:29:08.078Z,90.89
2022-12-17T00:30:08.085Z,90.79
2022-12-17T00:31:08.097Z,90.58
2022-12-17T00:32:08.051Z,90.58
2022-12-17T00:33:08.030Z,90.58
2022-12-17T00:34:08.028Z,90.58
2022-12-17T00:35:08.003Z,90.58
2022-12-17T00:36:08.001Z,90.69
2022-12-17T00:37:07.981Z,90.69
2022-12-17T00:38:07.960Z,90.47
2022-12-17T00:39:07.951Z,90.47
2022-12-17T00:40:07.931Z,90.37
2022-12-17T00:41:07.930Z,90.16
2022-12-17T00:42:07.931Z,89.94
2022-12-17T00:43:07.900Z,89.94
2022-12-17T00:44:07.900Z,89.94
2022-12-17T00:45:07.871Z,90.05
2022-12-17T00:46:07.863Z,90.16
2022-12-17T00:47:07.958Z,90.26
2022-12-17T00:48:07.829Z,90.26
2022-12-17T00:49:07.829Z,90.16
2022-12-17T00:50:07.809Z,90.09
2022-12-17T00:51:07.821Z,90.20
2022-12-17T00:52:07.781Z,90.30
2022-12-17T00:53:07.772Z,90.20
2022-12-17T00:54:07.765Z,90.30
2022-12-17T00:55:07.751Z,90.41
2022-12-17T00:56:07.760Z,90.41
2022-12-17T00:57:07.741Z,90.52
2022-12-17T00:58:07.721Z,90.72
2022-12-17T00:59:07.691Z,90.83
2022-12-17T01:00:07.678Z,90.83
2022-12-17T01:01:07.697Z,90.83
2022-12-17T01:02:07.743Z,90.72
2022-12-17T01:03:07.696Z,90.62
2022-12-17T01:04:07.633Z,90.41
2022-12-17T01:05:07.621Z,90.20
2022-12-17T01:06:07.600Z,89.98
2022-12-17T01:07:07.600Z,89.98
2022-12-17T01:08:07.590Z,90.03
2022-12-17T01:09:07.569Z,90.03
2022-12-17T01:10:07.560Z,90.13
2022-12-17T01:11:07.549Z,90.23
2022-12-17T01:12:07.530Z,90.23
2022-12-17T01:13:07.521Z,90.23
2022-12-17T01:14:07.510Z,90.23
2022-12-17T01:15:07.500Z,90.23
2022-12-17T01:16:07.529Z,90.23
2022-12-17T01:17:07.480Z,90.23
2022-12-17T01:18:07.449Z,90.13
2022-12-17T01:19:07.439Z,90.13
2022-12-17T01:20:07.434Z,90.34
2022-12-17T01:21:07.421Z,90.34
2022-12-17T01:22:07.415Z,90.45
2022-12-17T01:23:07.393Z,90.55
2022-12-17T01:24:07.369Z,90.45
2022-12-17T01:25:07.359Z,90.23
2022-12-17T01:26:07.372Z,90.17
2022-12-17T01:27:07.340Z,90.28
2022-12-17T01:28:07.347Z,90.49
2022-12-17T01:29:07.332Z,90.49
2022-12-17T01:30:07.298Z,90.49
2022-12-17T01:31:07.385Z,90.49
2022-12-17T01:32:07.335Z,90.59
2022-12-17T01:33:07.250Z,90.59
2022-12-17T01:34:07.278Z,90.49
2022-12-17T01:35:07.249Z,90.28
2022-12-17T01:36:07.228Z,90.17
2022-12-17T01:37:07.207Z,90.17
2022-12-17T01:38:07.191Z,90.23
2022-12-17T01:39:07.190Z,90.06
2022-12-17T01:40:07.159Z,90.06
2022-12-17T01:41:07.169Z,90.03
2022-12-17T01:42:07.138Z,90.06
2022-12-17T01:43:07.127Z,89.96
2022-12-17T01:44:07.122Z,89.86
2022-12-17T01:45:07.100Z,89.75
2022-12-17T01:46:07.151Z,89.61
2022-12-17T01:47:07.081Z,89.43
2022-12-17T01:48:07.058Z,89.43
2022-12-17T01:49:07.069Z,89.54
2022-12-17T01:50:07.028Z,89.54
2022-12-17T01:51:07.037Z,89.64
2022-12-17T01:52:07.009Z,89.75
2022-12-17T01:53:07.008Z,89.86
2022-12-17T01:54:07.008Z,89.96
2022-12-17T01:55:06.969Z,89.96
2022-12-17T01:56:07.018Z,89.96
2022-12-17T01:57:06.955Z,90.06
2022-12-17T01:58:06.929Z,90.17
2022-12-17T01:59:06.947Z,89.96
2022-12-17T02:00:06.907Z,89.75
2022-12-17T02:01:06.979Z,89.43
2022-12-17T02:02:07.135Z,89.32
2022-12-17T02:03:06.916Z,89.22
2022-12-17T02:04:06.868Z,89.15
2022-12-17T02:05:06.859Z,89.26
2022-12-17T02:06:06.835Z,89.37
2022-12-17T02:07:06.856Z,89.37
2022-12-17T02:08:06.819Z,89.26
2022-12-17T02:09:06.800Z,89.26
2022-12-17T02:10:06.786Z,89.37
2022-12-17T02:11:06.789Z,89.47
2022-12-17T02:12:06.747Z,89.58
2022-12-17T02:13:06.776Z,89.58
2022-12-17T02:14:06.750Z,89.58
2022-12-17T02:15:06.740Z,89.47
2022-12-17T02:16:06.734Z,89.30
2022-12-17T02:17:06.688Z,89.20
2022-12-17T02:18:06.687Z,89.20
2022-12-17T02:19:06.685Z,89.30
2022-12-17T02:20:06.666Z,89.40
2022-12-17T02:21:06.658Z,89.51
2022-12-17T02:22:06.637Z,89.55
2022-12-17T02:23:06.656Z,89.55
2022-12-17T02:24:06.616Z,89.55
2022-12-17T02:25:06.606Z,89.55
2022-12-17T02:26:06.579Z,89.55
2022-12-17T02:27:06.577Z,89.76
2022-12-17T02:28:06.559Z,89.87
2022-12-17T02:29:06.546Z,89.98
2022-12-17T02:30:06.538Z,90.19
2022-12-17T02:31:06.535Z,90.30
2022-12-17T02:32:06.626Z,90.33
2022-12-17T02:33:06.506Z,90.33
2022-12-17T02:34:06.497Z,90.44
2022-12-17T02:35:06.472Z,90.44
2022-12-17T02:36:06.457Z,90.55
2022-12-17T02:37:06.469Z,90.55
2022-12-17T02:38:06.439Z,90.55
2022-12-17T02:39:06.437Z,90.55
2022-12-17T02:40:06.416Z,90.65
2022-12-17T02:41:06.406Z,90.55
2022-12-17T02:42:06.497Z,90.59
2022-12-17T02:43:06.366Z,90.69
2022-12-17T02:44:06.355Z,90.69
2022-12-17T02:45:06.345Z,90.59
2022-12-17T02:46:06.371Z,90.48
2022-12-17T02:47:06.327Z,90.48
2022-12-17T02:48:06.320Z,90.62
2022-12-17T02:49:06.303Z,90.62
2022-12-17T02:50:06.313Z,90.73
2022-12-17T02:51:06.291Z,90.73
2022-12-17T02:52:06.287Z,90.84
2022-12-17T02:53:06.265Z,90.95
2022-12-17T02:54:06.265Z,90.95
2022-12-17T02:55:06.225Z,91.05
2022-12-17T02:56:06.227Z,90.99
2022-12-17T02:57:06.216Z,91.09
2022-12-17T02:58:06.209Z,91.09
2022-12-17T02:59:06.185Z,91.30
2022-12-17T03:00:06.165Z,91.30
2022-12-17T03:01:06.242Z,91.30
2022-12-17T03:02:06.358Z,91.41
2022-12-17T03:03:06.180Z,91.41
2022-12-17T03:04:06.133Z,91.41
2022-12-17T03:05:27.544Z,91.52
2022-12-17T03:06:07.106Z,91.52
2022-12-17T03:07:06.176Z,91.66
2022-12-17T03:08:06.067Z,91.66
2022-12-17T03:09:06.053Z,91.66
2022-12-17T03:10:06.054Z,91.77
2022-12-17T03:11:06.050Z,91.77
2022-12-17T03:12:06.043Z,91.88
2022-12-17T03:13:06.025Z,91.88
2022-12-17T03:14:06.001Z,91.77
2022-12-17T03:15:05.997Z,91.77
2022-12-17T03:16:05.983Z,91.66
2022-12-17T03:17:06.034Z,91.60
2022-12-17T03:18:05.948Z,91.71
2022-12-17T03:19:05.943Z,91.81
2022-12-17T03:20:05.936Z,92.02
2022-12-17T03:21:05.924Z,92.13
2022-12-17T03:22:05.924Z,92.17
2022-12-17T03:23:05.895Z,92.17
2022-12-17T03:24:05.898Z,92.17
2022-12-17T03:25:05.885Z,92.17
2022-12-17T03:26:05.878Z,92.17
2022-12-17T03:27:05.886Z,92.07
2022-12-17T03:28:05.847Z,92.07
2022-12-17T03:29:05.833Z,92.21
2022-12-17T03:30:05.814Z,92.21
2022-12-17T03:31:05.826Z,92.32
2022-12-17T03:32:05.781Z,92.43
2022-12-17T03:33:05.783Z,92.64
2022-12-17T03:34:05.774Z,92.68
2022-12-17T03:35:05.754Z,92.79
2022-12-17T03:36:05.779Z,92.79
2022-12-17T03:37:05.724Z,92.89
2022-12-17T03:38:05.731Z,93.00
2022-12-17T03:39:05.693Z,93.10
2022-12-17T03:40:05.685Z,93.10
2022-12-17T03:41:05.672Z,93.21
2022-12-17T03:42:05.653Z,93.21
2022-12-17T03:43:05.664Z,93.21
2022-12-17T03:44:05.633Z,93.21
2022-12-17T03:45:05.633Z,93.25
2022-12-17T03:46:05.644Z,93.15
2022-12-17T03:47:05.593Z,93.15
2022-12-17T03:48:05.592Z,93.15
2022-12-17T03:49:05.581Z,93.15
2022-12-17T03:50:05.572Z,93.15
2022-12-17T04:03:41.972Z,93.02
2022-12-17T04:04:41.925Z,92.91
2022-12-17T04:05:41.904Z,92.91
2022-12-17T04:06:41.888Z,92.91
2022-12-17T04:07:41.892Z,92.91
2022-12-17T04:08:41.895Z,92.91
2022-12-17T04:09:41.863Z,92.80
2022-12-17T04:10:41.862Z,92.80
2022-12-17T04:11:41.868Z,92.85
2022-12-17T04:12:41.823Z,92.95
2022-12-17T04:13:41.832Z,92.85
2022-12-17T04:14:41.802Z,92.85
2022-12-17T04:15:41.833Z,92.95
2022-12-17T04:16:49.285Z,93.06
2022-12-17T04:17:41.758Z,93.16
2022-12-17T04:18:41.755Z,93.16
2022-12-17T04:19:41.747Z,93.16
2022-12-17T04:20:41.757Z,93.16
2022-12-17T04:21:41.736Z,93.27
2022-12-17T04:22:41.706Z,93.38
2022-12-17T04:23:41.745Z,93.38
2022-12-17T04:24:41.683Z,93.48
2022-12-17T04:25:41.666Z,93.38
2022-12-17T04:26:41.667Z,93.38
2022-12-17T04:27:41.657Z,93.31
2022-12-17T04:28:41.636Z,93.31
2022-12-17T04:29:41.647Z,93.42
2022-12-17T04:30:41.664Z,93.48
2022-12-17T04:31:41.615Z,93.48
2022-12-17T04:32:41.586Z,93.48
2022-12-17T04:33:41.575Z,93.48
2022-12-17T04:34:41.582Z,93.42
2022-12-17T04:35:41.553Z,93.31
2022-12-17T04:36:41.586Z,93.21
2022-12-17T04:37:41.537Z,93.21
2022-12-17T04:38:41.504Z,93.10
2022-12-17T04:39:41.545Z,92.89
2022-12-17T04:40:41.486Z,92.78
2022-12-17T04:41:41.495Z,92.68
2022-12-17T04:42:41.476Z,92.57
2022-12-17T04:43:41.454Z,92.46
2022-12-17T04:44:41.471Z,92.50
2022-12-17T04:45:41.443Z,92.50
2022-12-17T04:46:41.479Z,92.50
2022-12-17T04:47:41.425Z,92.61
2022-12-17T04:48:41.395Z,92.61
2022-12-17T04:49:41.404Z,92.61
2022-12-17T04:50:41.386Z,92.50
2022-12-17T04:51:41.358Z,92.50
2022-12-17T04:52:41.367Z,92.50
2022-12-17T04:53:41.346Z,92.61
2022-12-17T04:54:41.344Z,92.50
2022-12-17T04:55:41.318Z,92.50
2022-12-17T04:56:41.294Z,92.61
2022-12-17T04:57:41.305Z,92.61
2022-12-17T04:58:41.284Z,92.50
2022-12-17T04:59:41.283Z,92.54
2022-12-17T05:00:41.270Z,92.44
2022-12-17T05:01:41.344Z,92.44
2022-12-17T05:02:42.987Z,92.33
2022-12-17T05:03:41.601Z,92.33
2022-12-17T05:04:41.238Z,92.44
2022-12-17T05:05:41.218Z,92.54
2022-12-17T05:06:41.174Z,92.54
2022-12-17T05:07:41.165Z,92.44
2022-12-17T05:08:41.660Z,92.48
2022-12-17T05:09:41.168Z,92.37
2022-12-17T05:10:41.149Z,92.37
2022-12-17T05:11:41.143Z,92.27
2022-12-17T05:12:41.103Z,92.27
2022-12-17T05:13:41.102Z,92.16
2022-12-17T05:14:41.112Z,92.16
2022-12-17T05:15:41.106Z,92.16
2022-12-17T05:16:41.052Z,92.05
2022-12-17T05:17:41.083Z,92.16
2022-12-17T05:18:41.031Z,92.16
2022-12-17T05:19:41.037Z,92.16
2022-12-17T05:20:41.031Z,92.16
2022-12-17T05:21:41.046Z,92.20
2022-12-17T05:22:40.991Z,92.30
2022-12-17T05:23:40.985Z,92.30
2022-12-17T05:24:40.963Z,92.30
2022-12-17T05:25:41.012Z,92.41
2022-12-17T05:26:40.952Z,92.41
2022-12-17T05:27:40.934Z,92.52
2022-12-17T05:28:40.955Z,92.52
2022-12-17T05:29:40.912Z,92.52
2022-12-17T05:30:40.913Z,92.41
2022-12-17T05:31:40.956Z,92.41
2022-12-17T05:32:41.007Z,92.52
2022-12-17T05:33:40.863Z,92.52
2022-12-17T05:34:40.860Z,92.63
2022-12-17T05:35:40.846Z,92.63
2022-12-17T05:36:40.836Z,92.52
2022-12-17T05:37:40.833Z,92.41
2022-12-17T05:38:40.795Z,92.41
2022-12-17T05:39:40.803Z,92.30
2022-12-17T05:40:40.811Z,92.20
2022-12-17T05:41:40.794Z,92.30
2022-12-17T05:42:40.752Z,92.30
2022-12-17T05:43:40.765Z,92.30
2022-12-17T05:44:40.731Z,92.20
2022-12-17T05:45:40.743Z,92.30
2022-12-17T05:46:40.798Z,92.30
2022-12-17T05:47:40.713Z,92.30
2022-12-17T05:48:40.692Z,92.41
2022-12-17T05:49:40.691Z,92.35
2022-12-17T05:50:40.680Z,92.24
2022-12-17T05:51:40.650Z,92.24
2022-12-17T05:52:40.632Z,92.35
2022-12-17T05:53:40.623Z,92.24
2022-12-17T05:54:40.633Z,92.13
2022-12-17T05:55:40.611Z,92.13
2022-12-17T05:56:40.612Z,92.13
2022-12-17T05:57:40.571Z,92.03
2022-12-17T05:58:40.574Z,92.03
2022-12-17T05:59:40.560Z,92.03
2022-12-17T06:00:40.551Z,91.92
2022-12-17T06:01:40.640Z,92.07
2022-12-17T06:02:40.645Z,91.96
2022-12-17T06:03:41.162Z,91.96
2022-12-17T06:04:40.511Z,92.07
2022-12-17T06:05:40.494Z,92.07
2022-12-17T06:06:40.490Z,92.07
2022-12-17T06:07:40.459Z,92.07
2022-12-17T06:08:40.468Z,92.18
2022-12-17T06:09:40.489Z,92.18
2022-12-17T06:10:40.468Z,92.18
2022-12-17T06:11:40.434Z,92.29
2022-12-17T06:12:40.440Z,92.29
2022-12-17T06:13:40.404Z,92.29
2022-12-17T06:14:40.415Z,92.39
2022-12-17T06:15:40.380Z,92.29
2022-12-17T06:16:40.391Z,92.29
2022-12-17T06:17:40.361Z,92.18
2022-12-17T06:18:40.331Z,92.07
2022-12-17T06:19:40.324Z,91.89
2022-12-17T06:20:40.328Z,91.79
2022-12-17T06:21:40.314Z,91.79
2022-12-17T06:22:40.297Z,91.89
2022-12-17T06:23:40.264Z,91.89
2022-12-17T06:24:45.725Z,91.68
2022-12-17T06:25:41.283Z,91.58
2022-12-17T06:26:40.244Z,91.58
2022-12-17T06:27:40.270Z,91.58
2022-12-17T06:28:40.225Z,91.47
2022-12-17T06:29:40.205Z,91.58
2022-12-17T06:30:40.217Z,91.58
2022-12-17T06:31:40.240Z,91.58
2022-12-17T06:32:40.180Z,91.47
2022-12-17T06:33:40.164Z,91.47
2022-12-17T06:34:40.159Z,91.47
2022-12-17T06:35:40.150Z,91.36
2022-12-17T06:36:40.151Z,91.25
2022-12-17T06:37:40.110Z,91.15
2022-12-17T06:38:40.119Z,91.19
2022-12-17T06:39:40.103Z,91.19
2022-12-17T06:40:40.100Z,91.08
2022-12-17T06:41:40.087Z,91.08
2022-12-17T06:42:40.069Z,91.08
2022-12-17T06:43:40.049Z,91.08
2022-12-17T06:44:40.058Z,91.19
2022-12-17T06:45:40.071Z,91.19
2022-12-17T06:46:40.036Z,91.30
2022-12-17T06:47:40.002Z,91.40
2022-12-17T06:48:39.991Z,91.40
2022-12-17T06:49:39.959Z,91.51
2022-12-17T06:50:39.991Z,91.51
2022-12-17T06:51:39.967Z,91.51
2022-12-17T06:52:39.931Z,91.51
2022-12-17T06:53:39.927Z,91.40
2022-12-17T06:54:39.918Z,91.40
2022-12-17T06:55:39.904Z,91.40
2022-12-17T06:56:39.890Z,91.23
2022-12-17T06:57:41.807Z,91.12
2022-12-17T06:58:39.859Z,91.02
2022-12-17T06:59:39.881Z,91.12
2022-12-17T07:00:39.891Z,91.12
2022-12-17T07:01:40.007Z,91.23
2022-12-17T07:02:39.909Z,91.34
2022-12-17T07:03:39.992Z,91.44
2022-12-17T07:04:39.817Z,91.34
2022-12-17T07:05:39.788Z,91.34
2022-12-17T07:06:39.816Z,91.44
2022-12-17T07:07:39.765Z,91.44
2022-12-17T07:08:39.746Z,91.34
2022-12-17T07:09:39.740Z,91.34
2022-12-17T07:10:39.720Z,91.27
2022-12-17T07:11:39.752Z,91.16
2022-12-17T07:12:39.702Z,91.06
2022-12-17T07:13:40.175Z,91.16
2022-12-17T07:14:39.686Z,91.38
2022-12-17T07:15:39.672Z,91.59
2022-12-17T07:16:39.777Z,91.59
2022-12-17T07:17:39.638Z,91.59
2022-12-17T07:18:39.698Z,91.66
2022-12-17T07:19:39.607Z,91.66
2022-12-17T07:20:39.613Z,91.66
2022-12-17T07:21:39.577Z,91.55
2022-12-17T07:22:39.595Z,91.44
2022-12-17T07:23:39.814Z,91.44
2022-12-17T07:24:39.551Z,91.34
2022-12-17T07:25:45.684Z,91.23
2022-12-17T07:26:40.555Z,91.23
2022-12-17T07:27:39.521Z,91.12
2022-12-17T07:28:39.511Z,91.02
2022-12-17T07:29:39.513Z,91.02
2022-12-17T07:30:39.506Z,91.08
2022-12-17T07:31:39.524Z,90.97
2022-12-17T07:32:39.469Z,90.87
2022-12-17T07:33:39.574Z,90.66
2022-12-17T07:34:39.436Z,90.44
2022-12-17T07:35:39.491Z,90.44
2022-12-17T07:36:39.435Z,90.33
2022-12-17T07:37:39.449Z,90.23
2022-12-17T07:38:39.388Z,90.01
2022-12-17T07:39:39.420Z,89.90
2022-12-17T07:40:39.399Z,89.90
2022-12-17T07:41:39.379Z,89.80
2022-12-17T07:42:39.365Z,89.80
2022-12-17T07:43:39.661Z,89.80
2022-12-17T07:44:39.346Z,89.80
2022-12-17T07:45:39.416Z,89.69
2022-12-17T07:46:39.309Z,89.80
2022-12-17T07:47:39.268Z,89.90
2022-12-17T07:48:39.270Z,90.12
2022-12-17T07:49:39.337Z,90.12
2022-12-17T07:50:39.238Z,89.97
2022-12-17T07:51:39.331Z,89.97
2022-12-17T07:52:39.249Z,89.87
2022-12-17T07:53:39.410Z,89.76
2022-12-17T07:54:40.011Z,89.76
2022-12-17T07:55:39.167Z,89.65
2022-12-17T07:56:39.191Z,89.44
2022-12-17T07:57:39.157Z,89.44
2022-12-17T07:58:39.148Z,89.33
2022-12-17T07:59:39.183Z,89.23
2022-12-17T08:00:40.048Z,89.12
2022-12-17T08:01:39.234Z,89.01
2022-12-17T08:02:39.305Z,89.01
2022-12-17T08:03:39.613Z,88.90
2022-12-17T08:04:39.098Z,88.90
2022-12-17T08:05:39.061Z,88.90
2022-12-17T08:06:39.097Z,88.90
2022-12-17T08:07:39.049Z,89.18
2022-12-17T08:08:39.056Z,89.40
2022-12-17T08:09:39.055Z,89.51
2022-12-17T08:10:39.006Z,89.40
2022-12-17T08:11:39.026Z,89.18
2022-12-17T08:12:38.987Z,89.14
2022-12-17T08:13:39.378Z,88.93
2022-12-17T08:14:38.975Z,88.82
2022-12-17T08:15:38.956Z,88.61
2022-12-17T08:16:39.021Z,88.51
2022-12-17T08:17:38.928Z,88.40
2022-12-17T08:18:38.955Z,88.29
2022-12-17T08:19:38.915Z,88.36
2022-12-17T08:20:38.926Z,88.36
2022-12-17T08:21:38.918Z,88.25
2022-12-17T08:22:38.935Z,88.10
2022-12-17T08:23:39.319Z,88.10
2022-12-17T08:24:38.865Z,88.10
2022-12-17T08:25:38.857Z,88.10
2022-12-17T08:26:42.028Z,88.00
2022-12-17T08:27:39.826Z,88.00
2022-12-17T08:28:50.622Z,88.10
2022-12-17T08:29:39.824Z,88.28
2022-12-17T08:30:38.884Z,88.28
2022-12-17T08:31:38.862Z,88.28
2022-12-17T08:32:38.782Z,88.35
2022-12-17T08:33:39.022Z,88.35
2022-12-17T08:34:38.743Z,88.35
2022-12-17T08:35:38.778Z,88.20
2022-12-17T08:36:38.737Z,88.09
2022-12-17T08:37:38.706Z,87.88
2022-12-17T08:38:38.703Z,87.66
2022-12-17T08:39:38.681Z,87.56
2022-12-17T08:40:38.744Z,87.31
2022-12-17T08:41:38.656Z,86.99
2022-12-17T08:42:38.672Z,86.99
2022-12-17T08:43:39.063Z,86.88
2022-12-17T08:44:38.636Z,86.63
2022-12-17T08:45:38.638Z,86.31
2022-12-17T08:46:38.591Z,85.68
2022-12-17T08:47:38.653Z,85.35
2022-12-17T08:48:38.643Z,85.21
2022-12-17T08:49:38.571Z,85.00
2022-12-17T08:50:38.572Z,84.64
2022-12-17T08:51:38.530Z,84.42
2022-12-17T08:52:38.542Z,84.17
2022-12-17T08:53:38.919Z,84.17
2022-12-17T08:54:38.516Z,84.07
2022-12-17T08:55:38.499Z,83.82
2022-12-17T08:56:38.483Z,83.61
2022-12-17T08:57:38.494Z,83.36
2022-12-17T08:58:38.452Z,83.25
2022-12-17T08:59:38.450Z,83.00
2022-12-17T09:00:38.424Z,82.79
2022-12-17T09:01:38.480Z,82.75
2022-12-17T09:02:47.218Z,82.29
2022-12-17T09:03:45.987Z,81.65
2022-12-17T09:04:46.922Z,81.34
2022-12-17T09:05:38.401Z,80.98
2022-12-17T09:06:39.392Z,80.88
2022-12-17T09:07:38.326Z,80.98
2022-12-17T09:08:38.315Z,80.52
2022-12-17T09:09:38.318Z,80.21
2022-12-17T09:10:38.325Z,79.74
2022-12-17T09:11:45.821Z,79.28
2022-12-17T09:12:48.008Z,78.83
2022-12-17T09:13:38.675Z,78.37
2022-12-17T09:14:38.247Z,78.05
2022-12-17T09:15:46.862Z,77.17
2022-12-17T09:16:38.277Z,77.06
2022-12-17T09:17:38.220Z,76.82
2022-12-17T09:18:38.367Z,76.22
2022-12-17T09:19:38.193Z,75.20
2022-12-17T09:20:38.272Z,74.32
2022-12-17T09:21:38.188Z,73.21
2022-12-17T09:22:38.194Z,71.45
2022-12-17T09:23:38.674Z,69.84
2022-12-17T09:24:38.139Z,68.55
2022-12-17T09:25:38.117Z,67.65
2022-12-17T09:26:38.119Z,66.33
2022-12-17T09:27:38.133Z,65.01
2022-12-17T09:28:38.108Z,63.93
2022-12-17T09:29:38.111Z,62.99
2022-12-17T09:30:38.089Z,62.28
2022-12-17T09:31:38.074Z,62.91
2022-12-17T09:32:38.087Z,62.85
2022-12-17T09:33:38.522Z,62.30
2022-12-17T09:34:38.039Z,61.46
2022-12-17T09:35:38.088Z,61.02
2022-12-17T09:36:37.984Z,60.86
2022-12-17T09:37:37.981Z,60.21
2022-12-17T09:38:38.003Z,60.07
2022-12-17T09:39:37.939Z,58.92
2022-12-17T09:40:37.949Z,58.61
2022-12-17T09:41:37.919Z,59.03
2022-12-17T09:42:37.909Z,58.81
2022-12-17T09:43:38.251Z,58.95
2022-12-17T09:44:37.919Z,59.81
2022-12-17T09:45:37.879Z,60.05
2022-12-17T09:46:37.912Z,61.20
2022-12-17T09:47:37.860Z,61.22
2022-12-17T10:03:52.531Z,64.41
2022-12-17T10:04:44.407Z,66.28
2022-12-17T10:05:44.397Z,67.89
2022-12-17T10:06:44.389Z,69.04
2022-12-17T10:07:44.358Z,69.64
2022-12-17T10:08:44.397Z,68.50
2022-12-17T10:09:44.339Z,66.55
2022-12-17T10:10:44.331Z,65.10
2022-12-17T10:11:44.602Z,63.60
2022-12-17T10:12:44.300Z,62.59
2022-12-17T10:13:44.298Z,63.64
2022-12-17T10:14:44.301Z,63.56
2022-12-17T10:15:44.335Z,64.15
2022-12-17T10:16:44.247Z,63.42
2022-12-17T10:17:52.855Z,62.87
2022-12-17T10:18:44.236Z,62.84
2022-12-17T10:19:44.217Z,61.90
2022-12-17T10:20:44.201Z,62.35
2022-12-17T10:21:44.176Z,62.77
2022-12-17T10:22:44.189Z,62.84
2022-12-17T10:23:44.166Z,62.32
2022-12-17T10:24:44.172Z,61.69
2022-12-17T10:25:44.136Z,62.38
2022-12-17T10:26:44.146Z,63.42
2022-12-17T10:27:44.107Z,63.32
2022-12-17T10:28:44.102Z,63.67
2022-12-17T10:29:48.181Z,64.29
2022-12-17T10:30:44.132Z,64.95
2022-12-17T10:31:44.057Z,65.47
2022-12-17T10:32:44.082Z,65.30
2022-12-17T10:33:44.039Z,65.95
2022-12-17T10:34:44.028Z,66.79
2022-12-17T10:35:44.039Z,66.79
2022-12-17T10:36:43.996Z,67.55
2022-12-17T10:37:43.987Z,68.18
2022-12-17T10:38:43.998Z,68.35
2022-12-17T10:39:43.966Z,68.95
2022-12-17T10:40:43.967Z,68.95
2022-12-17T10:41:43.926Z,68.57
2022-12-17T10:42:43.917Z,67.91
2022-12-17T10:43:43.900Z,67.18
2022-12-17T10:44:43.907Z,66.89
2022-12-17T10:45:43.892Z,67.32
2022-12-17T10:46:43.919Z,67.87
2022-12-17T10:47:43.847Z,68.21
2022-12-17T10:48:43.839Z,68.85
2022-12-17T10:49:43.833Z,69.48
2022-12-17T10:50:44.285Z,69.55
2022-12-17T10:51:43.789Z,68.92
2022-12-17T10:52:43.789Z,68.29
2022-12-17T10:53:43.770Z,68.68
2022-12-17T10:54:48.762Z,67.81
2022-12-17T10:55:44.737Z,67.78
2022-12-17T10:56:43.739Z,67.19
2022-12-17T10:57:43.738Z,66.58
2022-12-17T10:58:43.710Z,64.46
2022-12-17T10:59:43.730Z,63.18
2022-12-17T11:00:49.435Z,62.84
2022-12-17T11:01:44.788Z,61.87
2022-12-17T11:02:43.837Z,60.77
2022-12-17T11:03:43.701Z,60.01
2022-12-17T11:04:43.657Z,59.44
2022-12-17T11:05:43.709Z,59.70
2022-12-17T11:06:44.170Z,61.61
2022-12-17T11:07:43.597Z,62.79
2022-12-17T11:08:43.588Z,62.89
2022-12-17T11:09:43.582Z,63.18
2022-12-17T11:10:43.610Z,62.55
2022-12-17T11:11:43.552Z,62.32
2022-12-17T11:12:43.543Z,63.26
2022-12-17T11:13:43.508Z,64.31
2022-12-17T11:14:43.525Z,64.51
2022-12-17T11:15:43.541Z,64.28
2022-12-17T11:16:43.517Z,63.44
2022-12-17T11:17:43.468Z,63.62
2022-12-17T11:18:43.463Z,63.62
2022-12-17T11:19:43.468Z,63.42
2022-12-17T11:20:43.446Z,63.73
2022-12-17T11:21:43.423Z,63.39
2022-12-17T11:22:43.410Z,63.70
2022-12-17T11:23:43.399Z,63.88
2022-12-17T11:24:43.389Z,63.43
2022-12-17T11:25:43.397Z,62.41
2022-12-17T11:26:43.362Z,62.84
2022-12-17T11:27:43.338Z,62.73
2022-12-17T11:28:43.340Z,62.81
2022-12-17T11:29:43.311Z,62.70
2022-12-17T11:30:43.309Z,62.70
2022-12-17T11:31:43.388Z,62.81
2022-12-17T11:32:43.309Z,63.22
2022-12-17T11:33:43.260Z,63.67
2022-12-17T11:34:43.247Z,64.12
2022-12-17T11:35:43.265Z,64.67
2022-12-17T11:36:43.247Z,64.39
2022-12-17T11:37:43.209Z,64.87
2022-12-17T11:38:43.219Z,65.09
2022-12-17T11:39:43.188Z,64.84
2022-12-17T11:40:43.192Z,63.88
2022-12-17T11:41:43.158Z,62.77
2022-12-17T11:42:43.148Z,61.99
2022-12-17T11:43:43.131Z,60.78
2022-12-17T11:45:53.349Z,58.65
2022-12-17T11:46:53.475Z,58.18
2022-12-17T11:47:57.546Z,57.51
2022-12-17T11:48:54.312Z,56.86
2022-12-17T11:49:53.280Z,55.82
2022-12-17T11:50:53.279Z,56.39
2022-12-17T11:51:53.284Z,57.24
2022-12-17T11:52:53.334Z,57.79
2022-12-17T11:53:53.235Z,58.54
2022-12-17T11:54:53.211Z,58.68
2022-12-17T11:55:53.238Z,59.85
2022-12-17T11:56:53.196Z,60.22
2022-12-17T11:57:53.180Z,60.97
2022-12-17T11:58:53.173Z,61.87
2022-12-17T11:59:56.137Z,62.73
2022-12-17T12:00:54.208Z,64.01
2022-12-17T12:01:53.219Z,65.50
2022-12-17T12:02:53.193Z,65.74
2022-12-17T12:03:53.179Z,66.37
2022-12-17T12:04:53.119Z,66.89
2022-12-17T12:05:56.650Z,67.03
2022-12-17T12:06:53.079Z,67.73
2022-12-17T12:07:53.083Z,68.04
2022-12-17T12:08:53.041Z,67.83
2022-12-17T12:09:53.043Z,67.00
2022-12-17T12:10:53.024Z,66.44
2022-12-17T12:11:53.000Z,65.81
2022-12-17T12:12:52.999Z,65.71
2022-12-17T12:13:52.981Z,65.97
2022-12-17T12:14:52.963Z,64.56
2022-12-17T12:15:53.086Z,61.40
2022-12-17T12:16:53.045Z,58.15
2022-12-17T12:17:52.945Z,55.41
2022-12-17T12:18:52.916Z,54.11
2022-12-17T12:19:52.901Z,53.16
2022-12-17T12:20:52.977Z,51.89
2022-12-17T12:21:52.881Z,51.66
2022-12-17T12:22:52.880Z,51.04
2022-12-17T12:23:52.860Z,51.50
2022-12-17T12:24:52.832Z,52.04
2022-12-17T12:25:52.839Z,52.72
2022-12-17T12:26:52.821Z,53.80
2022-12-17T12:27:52.807Z,54.63
2022-12-17T12:28:52.796Z,54.32
2022-12-17T12:29:52.786Z,54.79
2022-12-17T12:30:52.769Z,55.74
2022-12-17T12:31:52.839Z,56.60
2022-12-17T12:32:52.737Z,57.04
2022-12-17T12:33:52.725Z,58.00
2022-12-17T12:34:52.710Z,58.42
2022-12-17T12:35:52.715Z,58.78
2022-12-17T12:36:52.701Z,59.61
2022-12-17T12:37:52.673Z,59.82
2022-12-17T12:38:52.662Z,59.64
2022-12-17T12:39:52.651Z,60.06
2022-12-17T12:40:52.653Z,61.10
2022-12-17T12:41:52.629Z,60.58
2022-12-17T12:42:52.782Z,61.21
2022-12-17T12:43:52.607Z,61.38
2022-12-17T12:44:52.589Z,61.18
2022-12-17T12:45:52.609Z,60.86
2022-12-17T12:46:52.601Z,61.83
2022-12-17T12:47:52.545Z,62.04
2022-12-17T12:48:52.543Z,61.59
2022-12-17T12:49:52.517Z,61.57
2022-12-17T12:50:52.532Z,61.22
2022-12-17T12:51:52.501Z,60.05
2022-12-17T12:52:52.536Z,59.19
2022-12-17T12:53:52.653Z,58.21
2022-12-17T12:54:52.444Z,57.56
2022-12-17T12:55:52.443Z,56.93
2022-12-17T12:56:52.460Z,57.84
2022-12-17T12:57:52.434Z,57.32
2022-12-17T12:58:52.424Z,57.22
2022-12-17T12:59:52.395Z,56.91
2022-12-17T13:00:52.556Z,57.24
2022-12-17T13:01:52.571Z,57.04
2022-12-17T13:02:52.519Z,57.59
2022-12-17T13:03:52.333Z,58.42
2022-12-17T13:04:52.329Z,58.31
2022-12-17T13:05:52.327Z,58.83
2022-12-17T13:06:52.305Z,58.83
2022-12-17T13:07:52.305Z,58.42
2022-12-17T13:08:52.291Z,58.59
2022-12-17T13:09:52.264Z,58.21
2022-12-17T13:10:52.332Z,58.31
2022-12-17T13:11:52.247Z,58.18
2022-12-17T13:12:52.234Z,58.05
2022-12-17T13:13:52.229Z,57.64
2022-12-17T13:14:52.214Z,57.01
2022-12-17T13:15:52.225Z,56.18
2022-12-17T13:16:52.334Z,56.81
2022-12-17T13:17:52.169Z,55.66
2022-12-17T13:18:52.168Z,55.51
2022-12-17T13:19:52.142Z,56.73
2022-12-17T13:20:52.127Z,58.97